Terminal Aerodrome Forecast
Issued by NWS Cleveland, OH

Home | Current Version | Previous Version | Graphics & Text | Print | Product List | Glossary Off
Versions: 1 2 3 4 5 6 7 8 9 10 11 12 13 14 15 16 17 18 19 20 21 22 23 24 25

000
FTUS41 KCLE 271700
TAFCLE
TAF
KCLE 271740Z 2718/2824 33012G20KT P6SM OVC018
     FM271900 34012G20KT P6SM OVC025
     FM272200 36010KT P6SM OVC035
     FM281000 34005KT 5SM BR BKN020
     FM281400 34008KT P6SM BKN040
     FM282200 34008KT P6SM SCT040=

USA.gov is the U.S. government's official web portal to all federal, state and local government web resources and services.